createdAt,value
2018-10-05T00:00:59.037Z,98750.22
2018-10-05T00:03:28.920Z,98751.53
2018-10-05T00:05:58.834Z,98751.54
2018-10-05T00:08:28.759Z,98747.62
2018-10-05T00:10:58.634Z,98744.16
2018-10-05T00:13:28.465Z,98743.28
2018-10-05T00:15:58.339Z,98748.95
2018-10-05T00:18:28.155Z,98747.66
2018-10-05T00:20:57.955Z,98753.73
2018-10-05T00:23:27.876Z,98748.53
2018-10-05T00:25:57.713Z,98746.32
2018-10-05T00:28:27.647Z,98747.19
2018-10-05T00:30:57.529Z,98747.19
2018-10-05T00:33:27.388Z,98743.27
2018-10-05T00:35:57.262Z,98737.63
2018-10-05T00:38:27.069Z,98737.61
2018-10-05T00:40:59.240Z,98737.19
2018-10-05T00:43:29.915Z,98743.70
2018-10-05T00:45:59.942Z,98734.59
2018-10-05T00:48:29.837Z,98730.66
2018-10-05T00:50:59.731Z,98728.05
2018-10-05T00:53:29.689Z,98728.03
2018-10-05T00:55:59.459Z,98725.88
2018-10-05T00:58:29.363Z,98721.09
2018-10-05T01:00:59.197Z,98721.50
2018-10-05T01:03:29.034Z,98724.12
2018-10-05T01:05:58.962Z,98724.98
2018-10-05T01:08:28.762Z,98722.81
2018-10-05T01:10:58.670Z,98722.83
2018-10-05T01:13:28.526Z,98718.91
2018-10-05T01:15:58.395Z,98723.25
2018-10-05T01:18:28.290Z,98726.31
2018-10-05T01:20:58.132Z,98725.88
2018-10-05T01:23:28.005Z,98725.84
2018-10-05T01:25:57.856Z,98723.25
2018-10-05T01:28:27.708Z,98714.97
2018-10-05T01:30:57.585Z,98712.79
2018-10-05T01:33:27.408Z,98712.80
2018-10-05T01:35:57.216Z,98714.95
2018-10-05T01:38:27.114Z,98711.05
2018-10-05T01:40:56.982Z,98707.56
2018-10-05T01:43:26.828Z,98713.64
2018-10-05T01:45:56.741Z,98711.47
2018-10-05T01:48:26.663Z,98711.92
2018-10-05T01:50:56.500Z,98705.83
2018-10-05T01:53:26.369Z,98693.67
2018-10-05T01:55:56.240Z,98697.13
2018-10-05T01:58:26.064Z,98690.59
2018-10-05T02:00:55.929Z,98691.91
2018-10-05T02:03:25.807Z,98690.61
2018-10-05T02:05:55.664Z,98684.07
2018-10-05T02:08:25.516Z,98687.11
2018-10-05T02:10:55.356Z,98682.33
2018-10-05T02:13:25.233Z,98683.64
2018-10-05T02:15:55.035Z,98688.41
2018-10-05T02:18:24.877Z,98682.32
2018-10-05T02:20:54.764Z,98678.84
2018-10-05T02:23:24.624Z,98678.42
2018-10-05T02:25:54.503Z,98681.03
2018-10-05T02:28:24.336Z,98676.66
2018-10-05T02:30:54.254Z,98675.37
2018-10-05T02:33:24.129Z,98683.64
2018-10-05T02:35:53.961Z,98677.98
2018-10-05T02:38:23.849Z,98680.58
2018-10-05T02:40:53.722Z,98676.67
2018-10-05T02:43:23.592Z,98680.16
2018-10-05T02:45:53.421Z,98674.06
2018-10-05T02:48:23.506Z,98675.81
2018-10-05T02:50:53.420Z,98674.52
2018-10-05T02:53:23.280Z,98674.49
2018-10-05T02:55:53.167Z,98667.09
2018-10-05T02:58:23.019Z,98666.22
2018-10-05T03:01:03.804Z,98665.78
2018-10-05T03:03:33.661Z,98663.17
2018-10-05T03:06:03.410Z,98662.29
2018-10-05T03:08:33.271Z,98664.02
2018-10-05T03:11:03.086Z,98663.55
2018-10-05T03:13:32.964Z,98652.27
2018-10-05T03:16:02.879Z,98656.58
2018-10-05T03:18:32.690Z,98655.27
2018-10-05T03:21:02.666Z,98655.27
2018-10-05T03:23:32.513Z,98650.50
2018-10-05T03:26:02.371Z,98654.41
2018-10-05T03:28:32.213Z,98657.88
2018-10-05T03:31:01.984Z,98656.14
2018-10-05T03:33:31.824Z,98659.63
2018-10-05T03:36:01.695Z,98652.24
2018-10-05T03:38:31.528Z,98650.94
2018-10-05T03:41:01.339Z,98649.64
2018-10-05T03:43:31.101Z,98456.11
2018-10-05T03:46:01.010Z,98647.44
2018-10-05T03:48:30.901Z,98643.53
2018-10-05T03:51:00.753Z,98651.78
2018-10-05T03:53:30.592Z,98645.25
2018-10-05T03:56:00.446Z,98653.94
2018-10-05T03:58:30.366Z,98647.86
2018-10-05T04:01:00.301Z,98653.50
2018-10-05T04:03:30.167Z,98653.92
2018-10-05T04:06:00.101Z,98658.30
2018-10-05T04:08:29.866Z,98663.51
2018-10-05T04:10:59.757Z,98659.59
2018-10-05T04:13:29.702Z,98659.59
2018-10-05T04:15:59.670Z,98663.09
2018-10-05T04:18:30.256Z,98667.87
2018-10-05T04:21:00.211Z,98665.67
2018-10-05T04:23:30.554Z,98662.66
2018-10-05T04:26:01.225Z,98664.34
2018-10-05T04:28:31.209Z,98659.98
2018-10-05T04:31:01.201Z,98667.77
2018-10-05T04:33:31.742Z,98666.47
2018-10-05T04:36:01.997Z,98663.43
2018-10-05T04:38:32.096Z,98668.64
2018-10-05T04:41:02.564Z,98675.98
2018-10-05T04:43:33.193Z,98677.73
2018-10-05T04:46:03.928Z,98681.63
2018-10-05T04:48:33.758Z,98680.73
2018-10-05T04:51:04.088Z,98682.03
2018-10-05T04:53:33.972Z,98684.17
2018-10-05T04:56:03.904Z,98684.60
2018-10-05T04:58:33.744Z,98685.44
2018-10-05T05:01:03.622Z,98688.05
2018-10-05T05:03:33.493Z,98686.73
2018-10-05T05:06:03.346Z,98695.41
2018-10-05T05:08:33.340Z,98699.79
2018-10-05T05:11:03.246Z,98699.39
2018-10-05T05:13:33.251Z,98697.26
2018-10-05T05:16:03.231Z,98705.10
2018-10-05T05:18:33.131Z,98701.26
2018-10-05T05:21:03.151Z,98703.42
2018-10-05T05:23:33.152Z,98698.70
2018-10-05T05:26:03.172Z,98710.05
2018-10-05T05:28:33.180Z,98718.37
2018-10-05T05:31:03.156Z,98723.19
2018-10-05T05:33:33.249Z,98729.34
2018-10-05T05:36:03.196Z,98732.83
2018-10-05T05:38:33.098Z,98736.73
2018-10-05T05:41:03.097Z,98740.21
2018-10-05T05:43:33.147Z,98735.44
2018-10-05T05:46:03.185Z,98738.06
2018-10-05T05:48:33.190Z,98740.64
2018-10-05T05:51:03.195Z,98738.48
2018-10-05T05:53:33.148Z,98741.09
2018-10-05T05:56:03.170Z,98751.55
2018-10-05T05:58:33.090Z,98747.20
2018-10-05T06:01:06.941Z,98755.90
2018-10-05T06:03:38.537Z,98748.05
2018-10-05T06:06:08.590Z,98748.92
2018-10-05T06:08:38.616Z,98745.03
2018-10-05T06:11:08.682Z,98749.79
2018-10-05T06:13:38.631Z,98754.58
2018-10-05T06:16:08.703Z,98753.26
2018-10-05T06:18:38.644Z,98751.93
2018-10-05T06:21:08.643Z,98758.02
2018-10-05T06:23:38.544Z,98750.16
2018-10-05T06:26:08.589Z,98754.05
2018-10-05T06:28:38.568Z,98749.64
2018-10-05T06:31:08.657Z,98743.94
2018-10-05T06:33:38.667Z,98751.31
2018-10-05T06:36:08.636Z,98752.56
2018-10-05T06:38:38.643Z,98747.64
2018-10-05T06:41:08.626Z,98753.13
2018-10-05T06:43:38.571Z,98754.77
2018-10-05T06:46:08.947Z,98755.98
2018-10-05T06:48:38.934Z,98752.91
2018-10-05T06:51:08.958Z,98759.42
2018-10-05T06:53:38.915Z,98756.30
2018-10-05T06:56:08.955Z,98757.19
2018-10-05T06:58:39.319Z,98672.05
2018-10-05T07:01:09.437Z,98765.00
2018-10-05T07:03:39.398Z,98753.13
2018-10-05T07:06:09.510Z,98759.22
2018-10-05T07:08:39.517Z,98755.19
2018-10-05T07:11:09.528Z,98761.54
2018-10-05T07:13:39.495Z,98760.57
2018-10-05T07:16:09.474Z,98660.27
2018-10-05T07:18:39.500Z,98754.73
2018-10-05T07:21:09.514Z,98749.77
2018-10-05T07:23:39.511Z,98757.07
2018-10-05T07:26:09.526Z,98752.11
2018-10-05T07:28:39.651Z,98755.89
2018-10-05T07:31:09.636Z,98753.58
2018-10-05T07:33:39.681Z,98757.28
2018-10-05T07:36:09.676Z,98753.97
2018-10-05T07:38:39.596Z,98753.41
2018-10-05T07:41:09.595Z,98749.88
2018-10-05T07:43:39.780Z,98746.73
2018-10-05T07:46:09.754Z,98751.52
2018-10-05T07:48:39.702Z,98754.48
2018-10-05T07:51:09.626Z,98754.39
2018-10-05T07:53:39.585Z,98754.22
2018-10-05T07:56:09.559Z,98750.56
2018-10-05T07:58:39.571Z,98747.75
2018-10-05T08:01:09.639Z,98745.88
2018-10-05T08:03:39.607Z,98745.73
2018-10-05T08:06:09.675Z,98743.21
2018-10-05T08:08:39.866Z,98735.78
2018-10-05T08:11:09.982Z,98727.42
2018-10-05T08:13:40.074Z,98720.72
2018-10-05T08:16:10.124Z,98717.27
2018-10-05T08:18:40.115Z,98711.73
2018-10-05T08:21:10.196Z,98708.74
2018-10-05T08:23:40.192Z,98702.50
2018-10-05T08:26:10.270Z,98707.23
2018-10-05T08:28:40.259Z,98696.25
2018-10-05T08:31:10.352Z,98692.00
2018-10-05T08:33:40.420Z,98690.25
2018-10-05T08:36:10.489Z,98689.23
2018-10-05T08:38:40.546Z,98691.89
2018-10-05T08:41:10.538Z,98682.98
2018-10-05T08:43:40.587Z,98683.84
2018-10-05T08:46:10.740Z,98674.23
2018-10-05T08:48:40.948Z,98673.31
2018-10-05T08:51:11.008Z,98677.50
2018-10-05T08:53:40.946Z,98679.42
2018-10-05T08:56:10.947Z,98684.69
2018-10-05T08:58:40.931Z,98679.06
2018-10-05T09:01:10.955Z,98678.62
2018-10-05T09:03:41.061Z,98673.94
2018-10-05T09:06:11.037Z,98667.14
2018-10-05T09:08:41.063Z,98668.11
2018-10-05T09:11:11.150Z,98660.52
2018-10-05T09:13:41.191Z,98664.73
2018-10-05T09:16:11.424Z,98661.48
2018-10-05T09:18:41.475Z,98665.10
2018-10-05T09:21:11.428Z,98667.83
2018-10-05T09:23:41.440Z,98661.91
2018-10-05T09:26:11.392Z,98652.70
2018-10-05T09:28:41.445Z,98655.22
2018-10-05T09:31:11.458Z,98661.59
2018-10-05T09:33:41.416Z,98662.98
2018-10-05T09:36:11.354Z,98660.48
2018-10-05T09:38:41.392Z,98661.27
2018-10-05T09:41:11.414Z,98663.70
2018-10-05T09:43:41.520Z,98658.15
2018-10-05T09:46:11.636Z,98652.66
2018-10-05T09:48:41.595Z,98658.58
2018-10-05T09:51:11.603Z,98657.32
2018-10-05T09:53:41.605Z,98657.61
2018-10-05T09:56:11.615Z,98650.98
2018-10-05T09:58:41.605Z,98649.23
2018-10-05T10:01:16.623Z,98643.52
2018-10-05T10:03:46.564Z,98647.25
2018-10-05T10:06:16.510Z,98642.52
2018-10-05T10:08:46.439Z,98648.40
2018-10-05T10:11:16.467Z,98652.41
2018-10-05T10:13:46.849Z,98644.37
2018-10-05T10:16:16.880Z,98645.17
2018-10-05T10:18:46.984Z,98640.27
2018-10-05T10:21:16.962Z,98543.48
2018-10-05T10:23:46.926Z,98638.26
2018-10-05T10:26:16.866Z,98633.92
2018-10-05T10:28:47.020Z,98625.43
2018-10-05T10:31:16.903Z,98618.47
2018-10-05T10:33:46.941Z,98627.61
2018-10-05T10:36:16.857Z,98619.30
2018-10-05T10:38:46.974Z,98611.98
2018-10-05T10:41:17.018Z,98619.84
2018-10-05T10:43:46.965Z,98619.05
2018-10-05T10:46:16.938Z,98615.11
2018-10-05T10:48:46.861Z,98613.79
2018-10-05T10:51:16.886Z,98604.42
2018-10-05T10:53:46.930Z,98613.00
2018-10-05T10:56:17.033Z,98613.00
2018-10-05T10:58:46.958Z,98602.94
2018-10-05T11:01:16.923Z,98486.72
2018-10-05T11:03:46.948Z,98602.41
2018-10-05T11:06:16.947Z,98592.27
2018-10-05T11:08:46.918Z,98594.97
2018-10-05T11:11:17.030Z,98579.27
2018-10-05T11:13:47.010Z,98573.17
2018-10-05T11:16:16.963Z,98571.53
2018-10-05T11:18:46.955Z,98569.09
2018-10-05T11:21:17.080Z,98565.86
2018-10-05T11:23:47.111Z,98562.82
2018-10-05T11:26:17.148Z,98557.34
2018-10-05T11:28:47.167Z,98551.27
2018-10-05T11:31:17.147Z,98549.23
2018-10-05T11:33:47.113Z,98543.82
2018-10-05T11:36:17.037Z,98553.84
2018-10-05T11:38:47.030Z,98545.20
2018-10-05T11:41:17.042Z,98540.70
2018-10-05T11:43:47.028Z,98532.13
2018-10-05T11:46:17.167Z,98533.42
2018-10-05T11:48:47.099Z,98528.05
2018-10-05T11:51:17.082Z,98526.66
2018-10-05T11:53:47.015Z,98515.67
2018-10-05T11:56:17.033Z,98515.98
2018-10-05T11:58:46.989Z,98519.11
2018-10-05T12:01:17.018Z,98515.77
2018-10-05T12:03:47.058Z,98510.86
2018-10-05T12:06:17.183Z,98506.59
2018-10-05T12:08:47.228Z,98501.27
2018-10-05T12:11:17.227Z,98504.34
2018-10-05T12:13:47.209Z,98502.05
2018-10-05T12:16:17.208Z,98495.08
2018-10-05T12:18:47.279Z,98498.30
2018-10-05T12:21:17.310Z,98491.07
2018-10-05T12:23:47.261Z,98484.52
2018-10-05T12:26:17.299Z,98479.29
2018-10-05T12:28:47.251Z,98472.20
2018-10-05T12:31:17.303Z,98477.86
2018-10-05T12:33:47.456Z,98468.19
2018-10-05T12:36:17.471Z,98465.07
2018-10-05T12:38:47.504Z,98457.70
2018-10-05T12:41:17.529Z,98456.24
2018-10-05T12:43:47.628Z,98450.52
2018-10-05T12:46:17.669Z,98445.47
2018-10-05T12:48:47.670Z,98443.71
2018-10-05T12:51:17.712Z,98441.10
2018-10-05T12:53:47.710Z,98438.52
2018-10-05T12:56:17.674Z,98443.92
2018-10-05T12:58:47.655Z,98436.05
2018-10-05T13:01:17.701Z,98433.55
2018-10-05T13:03:47.719Z,98423.88
2018-10-05T13:06:18.034Z,98422.66
2018-10-05T13:08:48.055Z,98421.88
2018-10-05T13:11:18.051Z,98412.68
2018-10-05T13:13:48.039Z,98408.28
2018-10-05T13:16:17.990Z,98408.28
2018-10-05T13:18:48.020Z,98410.89
2018-10-05T13:21:17.990Z,98401.20
2018-10-05T13:23:48.085Z,98395.47
2018-10-05T13:26:18.071Z,98401.09
2018-10-05T13:28:48.134Z,98397.12
2018-10-05T13:31:18.131Z,98387.24
2018-10-05T13:33:48.167Z,98382.48
2018-10-05T13:36:18.295Z,98385.63
2018-10-05T13:38:48.593Z,98381.66
2018-10-05T13:41:18.792Z,98376.58
2018-10-05T13:43:49.017Z,98378.77
2018-10-05T13:46:19.003Z,98376.72
2018-10-05T13:48:49.523Z,98377.69
2018-10-05T13:51:19.514Z,98377.30
2018-10-05T13:53:49.533Z,98374.19
2018-10-05T13:56:19.537Z,98375.72
2018-10-05T13:58:49.670Z,98372.97
2018-10-05T14:01:19.622Z,98366.99
2018-10-05T14:03:49.596Z,98364.67
2018-10-05T14:06:19.626Z,98365.67
2018-10-05T14:08:49.704Z,98362.52
2018-10-05T14:11:19.696Z,98366.64
2018-10-05T14:13:49.731Z,98362.42
2018-10-05T14:16:19.759Z,98368.53
2018-10-05T14:18:49.730Z,98365.13
2018-10-05T14:21:19.729Z,98367.78
2018-10-05T14:23:49.818Z,98363.27
2018-10-05T14:26:19.850Z,98361.77
2018-10-05T14:28:49.867Z,98355.62
2018-10-05T14:31:19.786Z,98357.38
2018-10-05T14:33:49.997Z,98356.05
2018-10-05T14:36:19.935Z,98347.61
2018-10-05T14:38:50.561Z,98350.50
2018-10-05T14:41:20.478Z,98341.49
2018-10-05T14:43:50.498Z,98340.42
2018-10-05T14:46:20.587Z,98346.25
2018-10-05T14:48:50.587Z,98344.67
2018-10-05T14:51:20.608Z,98346.02
2018-10-05T14:53:50.666Z,98347.03
2018-10-05T14:56:20.731Z,98347.92
2018-10-05T14:58:50.640Z,98357.19
2018-10-05T15:01:20.601Z,98294.95
2018-10-05T15:03:50.617Z,98354.47
2018-10-05T15:06:20.646Z,98358.48
2018-10-05T15:08:50.640Z,98359.41
2018-10-05T15:11:20.683Z,98356.02
2018-10-05T15:13:50.654Z,98356.58
2018-10-05T15:16:20.685Z,98353.08
2018-10-05T15:18:50.606Z,98354.94
2018-10-05T15:21:20.662Z,98351.93
2018-10-05T15:23:50.661Z,98358.80
2018-10-05T15:26:20.629Z,98362.41
2018-10-05T15:28:50.682Z,98361.33
2018-10-05T15:31:20.523Z,98364.70
2018-10-05T15:33:50.608Z,98366.34
2018-10-05T15:36:20.663Z,98362.68
2018-10-05T15:38:50.764Z,98365.65
2018-10-05T15:41:20.716Z,98367.11
2018-10-05T15:43:50.672Z,98367.42
2018-10-05T15:47:05.722Z,98367.76
2018-10-05T15:49:36.436Z,98361.45
2018-10-05T15:52:06.407Z,98362.70
2018-10-05T15:54:36.460Z,98365.59
2018-10-05T15:57:06.531Z,98370.54
2018-10-05T15:59:36.993Z,98383.46
2018-10-05T16:02:07.108Z,98369.74
2018-10-05T16:04:36.997Z,98243.33
2018-10-05T16:07:07.088Z,98365.59
2018-10-05T16:09:37.047Z,98360.13
2018-10-05T16:12:07.024Z,98356.97
2018-10-05T16:14:37.124Z,98360.81
2018-10-05T16:17:07.054Z,98359.95
2018-10-05T16:19:37.111Z,98357.25
2018-10-05T16:22:07.144Z,98359.78
2018-10-05T16:24:42.313Z,98357.93
2018-10-05T16:27:12.994Z,98361.26
2018-10-05T16:29:42.945Z,98361.06
2018-10-05T16:32:13.249Z,98361.66
2018-10-05T16:34:43.277Z,98371.88
2018-10-05T16:37:13.271Z,98377.34
2018-10-05T16:39:43.207Z,98371.46
2018-10-05T16:42:13.196Z,98370.87
2018-10-05T16:44:43.311Z,98366.75
2018-10-05T16:47:13.309Z,98365.22
2018-10-05T16:49:43.330Z,98371.55
2018-10-05T16:52:13.303Z,98368.88
2018-10-05T16:54:43.471Z,98371.12
2018-10-05T16:57:13.464Z,98365.20
2018-10-05T16:59:43.445Z,98367.28
2018-10-05T17:02:13.448Z,98374.67
2018-10-05T17:04:43.437Z,98372.39
2018-10-05T17:07:13.516Z,98377.88
2018-10-05T17:09:43.499Z,98379.84
2018-10-05T17:12:13.443Z,98377.84
2018-10-05T17:14:43.404Z,98377.03
2018-10-05T17:17:13.488Z,98376.39
2018-10-05T17:19:43.518Z,98377.17
2018-10-05T17:22:13.540Z,98378.39
2018-10-05T17:24:43.575Z,98379.97
2018-10-05T17:27:13.509Z,98376.33
2018-10-05T17:29:43.552Z,98379.63
2018-10-05T17:32:13.398Z,98373.81
2018-10-05T17:34:43.253Z,98373.51
2018-10-05T17:37:13.114Z,98384.69
2018-10-05T17:39:43.005Z,98383.52
2018-10-05T17:42:12.957Z,98385.39
2018-10-05T17:44:42.816Z,98388.77
2018-10-05T17:47:13.959Z,98387.63
2018-10-05T17:49:43.837Z,98381.06
2018-10-05T17:52:13.695Z,98375.45
2018-10-05T17:54:43.543Z,98382.29
2018-10-05T17:57:13.954Z,98379.70
2018-10-05T17:59:43.718Z,98382.70
2018-10-05T18:02:13.640Z,98386.78
2018-10-05T18:04:43.555Z,98387.42
2018-10-05T18:07:13.431Z,98391.09
2018-10-05T18:09:43.367Z,98383.84
2018-10-05T18:12:13.191Z,98387.73
2018-10-05T18:14:43.124Z,98386.88
2018-10-05T18:17:13.076Z,98392.31
2018-10-05T18:19:43.096Z,98396.02
2018-10-05T18:22:12.935Z,98392.21
2018-10-05T18:24:42.851Z,98398.41
2018-10-05T18:27:12.703Z,98399.73
2018-10-05T18:29:42.593Z,98399.40
2018-10-05T18:32:12.533Z,98402.44
2018-10-05T18:34:42.595Z,98398.75
2018-10-05T18:37:12.677Z,98393.17
2018-10-05T18:39:42.534Z,98395.47
2018-10-05T18:42:12.568Z,98394.36
2018-10-05T18:44:42.551Z,98387.34
2018-10-05T18:47:12.558Z,98383.12
2018-10-05T18:49:42.680Z,98387.70
2018-10-05T18:52:12.632Z,98393.84
2018-10-05T18:54:42.544Z,98381.78
2018-10-05T18:57:15.504Z,98382.48
2018-10-05T18:59:45.529Z,98383.84
2018-10-05T19:02:17.245Z,98386.12
2018-10-05T19:04:47.715Z,98384.40
2018-10-05T19:07:17.749Z,98379.12
2018-10-05T19:09:47.768Z,98379.38
2018-10-05T19:12:17.739Z,98379.08
2018-10-05T19:14:47.659Z,98366.64
2018-10-05T19:17:17.571Z,98366.52
2018-10-05T19:19:47.539Z,98369.22
2018-10-05T19:22:17.489Z,98362.96
2018-10-05T19:24:47.402Z,98362.59
2018-10-05T19:27:17.187Z,98358.36
2018-10-05T19:29:47.112Z,98354.23
2018-10-05T19:32:17.455Z,98347.37
2018-10-05T19:34:48.457Z,98349.66
2018-10-05T19:37:18.316Z,98354.03
2018-10-05T19:39:48.214Z,98256.37
2018-10-05T19:42:18.218Z,98339.41
2018-10-05T19:44:48.108Z,98342.94
2018-10-05T19:47:18.076Z,98338.28
2018-10-05T19:49:48.001Z,98337.31
2018-10-05T19:52:17.948Z,98333.45
2018-10-05T19:54:47.995Z,98333.11
2018-10-05T19:57:17.928Z,98328.59
2018-10-05T19:59:47.900Z,98333.00
2018-10-05T20:02:17.859Z,98336.97
2018-10-05T20:04:47.715Z,98340.90
2018-10-05T20:07:17.658Z,98351.48
2018-10-05T20:09:47.571Z,98340.59
2018-10-05T20:12:17.410Z,98342.38
2018-10-05T20:14:47.339Z,98342.89
2018-10-05T20:17:17.326Z,98345.13
2018-10-05T20:19:47.285Z,98346.02
2018-10-05T20:22:17.122Z,98338.16
2018-10-05T20:24:46.978Z,98238.79
2018-10-05T20:27:16.868Z,98333.63
2018-10-05T20:29:47.119Z,98336.25
2018-10-05T20:32:17.019Z,98331.97
2018-10-05T20:34:46.989Z,98329.34
2018-10-05T20:37:16.955Z,98323.36
2018-10-05T20:39:46.720Z,98327.41
2018-10-05T20:42:16.604Z,98326.58
2018-10-05T20:44:46.515Z,98331.97
2018-10-05T20:47:16.395Z,98338.48
2018-10-05T20:49:47.002Z,98339.70
2018-10-05T20:52:16.933Z,98336.61
2018-10-05T20:54:46.705Z,98337.98
2018-10-05T20:57:16.638Z,98349.73
2018-10-05T20:59:46.572Z,98341.94
2018-10-05T21:02:16.442Z,98348.89
2018-10-05T21:04:46.307Z,98344.13
2018-10-05T21:07:16.239Z,98338.56
2018-10-05T21:09:46.139Z,98339.20
2018-10-05T21:12:15.934Z,98340.28
2018-10-05T21:14:45.807Z,98338.55
2018-10-05T21:17:15.674Z,98332.34
2018-10-05T21:19:45.629Z,98333.23
2018-10-05T21:22:15.412Z,98330.23
2018-10-05T21:24:45.216Z,98324.16
2018-10-05T21:27:15.111Z,98321.57
2018-10-05T21:29:44.926Z,98322.45
2018-10-05T21:32:14.818Z,98320.75
2018-10-05T21:34:44.706Z,98320.31
2018-10-05T21:37:14.451Z,98321.59
2018-10-05T21:39:44.325Z,98320.31
2018-10-05T21:42:14.586Z,98319.45
2018-10-05T21:44:44.530Z,98312.02
2018-10-05T21:47:14.387Z,98313.38
2018-10-05T21:49:44.391Z,98306.89
2018-10-05T21:52:14.315Z,98300.80
2018-10-05T21:54:44.051Z,98305.60
2018-10-05T21:57:13.883Z,98293.95
2018-10-05T21:59:43.730Z,98292.63
2018-10-05T22:02:13.622Z,98292.28
2018-10-05T22:04:43.453Z,98288.77
2018-10-05T22:07:13.253Z,98300.94
2018-10-05T22:09:43.166Z,98302.72
2018-10-05T22:12:12.928Z,98296.17
2018-10-05T22:14:42.790Z,98296.16
2018-10-05T22:17:12.660Z,98290.42
2018-10-05T22:19:42.565Z,98293.59
2018-10-05T22:22:12.342Z,98299.28
2018-10-05T22:24:42.193Z,98290.18
2018-10-05T22:27:12.002Z,98283.30
2018-10-05T22:29:41.869Z,98284.31
2018-10-05T22:32:11.666Z,98284.77
2018-10-05T22:34:41.495Z,98284.31
2018-10-05T22:37:11.615Z,98275.22
2018-10-05T22:39:41.425Z,98287.07
2018-10-05T22:42:11.301Z,98279.67
2018-10-05T22:44:41.136Z,98281.42
2018-10-05T22:47:10.962Z,98279.55
2018-10-05T22:49:40.884Z,98282.03
2018-10-05T22:52:10.752Z,98283.30
2018-10-05T22:54:40.609Z,98281.13
2018-10-05T22:57:10.511Z,98278.09
2018-10-05T22:59:40.359Z,98276.36
2018-10-05T23:02:10.250Z,98280.70
2018-10-05T23:04:40.082Z,98285.05
2018-10-05T23:07:09.852Z,98290.73
2018-10-05T23:09:39.674Z,98278.48
2018-10-05T23:12:09.512Z,98281.58
2018-10-05T23:14:39.520Z,98275.50
2018-10-05T23:17:09.367Z,98277.79
2018-10-05T23:19:39.139Z,98279.14
2018-10-05T23:22:09.032Z,98270.45
2018-10-05T23:24:38.992Z,98279.23
2018-10-05T23:27:08.942Z,98272.30
2018-10-05T23:29:38.772Z,98274.50
2018-10-05T23:32:08.619Z,98271.87
2018-10-05T23:34:38.474Z,98270.15
2018-10-05T23:37:08.443Z,98270.63
2018-10-05T23:39:38.260Z,98275.02
2018-10-05T23:42:08.145Z,98271.55
2018-10-05T23:44:37.966Z,98267.69
2018-10-05T23:47:07.818Z,98261.59
2018-10-05T23:49:37.664Z,98259.41
2018-10-05T23:52:18.351Z,98251.66
2018-10-05T23:54:48.191Z,98247.00
2018-10-05T23:57:18.056Z,98237.48
2018-10-05T23:59:47.932Z,98240.45
